Time;durP1;ratioP1;P1;durP2;ratioP2;P2;SDS_P1;SDS_P2;PMS_P1;PMS_P2;Temp;Humidity;BMP_temperature;BMP_pressure;BME280_temperature;BME280_humidity;BME280_pressure;Samples;Min_cycle;Max_cycle;Signal;HPM_P1;HPM_P2
2021/06/01 00:01:46;;;;;;;6.37;5.60;;;;;;;10.60;97.74;98756.44;3729708;78;44133;-25
2021/06/01 00:06:52;;;;;;;6.08;5.25;;;;;;;10.46;100.00;98759.17;3806111;76;44096;-26
2021/06/01 00:11:58;;;;;;;5.95;5.35;;;;;;;10.44;99.56;98751.73;3803891;76;44019;-24
2021/06/01 00:17:05;;;;;;;7.20;5.35;;;;;;;10.44;99.50;98753.08;3730275;78;43687;-25
2021/06/01 00:22:12;;;;;;;5.90;4.97;;;;;;;10.29;100.00;98751.90;3807396;76;43203;-25
2021/06/01 00:27:18;;;;;;;6.80;5.55;;;;;;;10.27;100.00;98757.93;3808014;76;44405;-25
2021/06/01 00:32:24;;;;;;;8.38;5.90;;;;;;;10.28;100.00;98749.69;3804702;76;44410;-25
2021/06/01 00:37:30;;;;;;;9.80;7.08;;;;;;;10.21;100.00;98761.20;3810746;77;44083;-25
2021/06/01 00:42:36;;;;;;;7.40;5.80;;;;;;;10.15;100.00;98755.45;3728497;78;44562;-25
2021/06/01 00:47:42;;;;;;;8.20;6.20;;;;;;;10.06;100.00;98752.80;3799117;78;43383;-25
2021/06/01 00:52:48;;;;;;;7.03;6.08;;;;;;;9.97;100.00;98752.70;3733291;78;43274;-25
2021/06/01 00:57:56;;;;;;;11.03;6.50;;;;;;;9.86;100.00;98751.05;3805301;76;43698;-25
2021/06/01 01:03:02;;;;;;;8.00;5.92;;;;;;;9.81;100.00;98749.31;3800817;78;44396;-25
2021/06/01 01:08:31;;;;;;;6.87;5.95;;;;;;;9.74;100.00;98742.80;3805511;78;43474;-25
2021/06/01 01:13:32;;;;;;;8.23;6.40;;;;;;;9.71;100.00;98747.13;3723973;78;43622;-25
2021/06/01 01:18:40;;;;;;;9.28;6.58;;;;;;;9.65;100.00;98749.08;3804695;76;43242;-24
2021/06/01 01:23:50;;;;;;;9.53;6.05;;;;;;;9.58;100.00;98749.33;3820270;76;43326;-25
2021/06/01 01:29:01;;;;;;;7.03;5.85;;;;;;;9.53;100.00;98749.27;3857674;75;44047;-24
2021/06/01 01:34:09;;;;;;;6.78;5.65;;;;;;;9.48;100.00;98752.88;3861456;75;44061;-25
2021/06/01 01:39:16;;;;;;;5.80;5.20;;;;;;;9.41;100.00;98747.74;3857528;75;43065;-25
2021/06/01 01:44:26;;;;;;;6.05;5.28;;;;;;;9.35;100.00;98749.69;3859220;75;43468;-25
2021/06/01 01:49:33;;;;;;;6.42;5.72;;;;;;;9.25;100.00;98746.50;3857262;75;43025;-25
2021/06/01 01:54:39;;;;;;;6.83;5.85;;;;;;;9.20;100.00;98742.06;3859142;75;44002;-25
2021/06/01 01:59:46;;;;;;;8.80;6.55;;;;;;;9.09;100.00;98739.54;3854959;75;43612;-26
2021/06/01 02:04:53;;;;;;;6.97;6.10;;;;;;;9.04;100.00;98742.66;3858618;75;43405;-25
2021/06/01 02:09:59;;;;;;;6.83;6.10;;;;;;;8.97;100.00;98736.14;3788607;77;43382;-25
2021/06/01 02:15:09;;;;;;;7.80;6.33;;;;;;;8.87;100.00;98730.80;3786419;77;42868;-25
2021/06/01 02:20:18;;;;;;;8.58;6.80;;;;;;;8.79;100.00;98730.65;3724520;78;43171;-25
2021/06/01 02:25:28;;;;;;;7.42;6.62;;;;;;;8.75;100.00;98734.12;3759361;77;43357;-25
2021/06/01 02:30:37;;;;;;;7.03;6.10;;;;;;;8.64;100.00;98737.78;3806207;76;44258;-25
2021/06/01 02:35:44;;;;;;;7.67;6.45;;;;;;;8.65;100.00;98737.30;3800371;77;42966;-25
2021/06/01 02:40:52;;;;;;;8.33;6.67;;;;;;;8.61;100.00;98736.74;3805682;76;43692;-25
2021/06/01 02:45:59;;;;;;;7.12;6.00;;;;;;;8.53;100.00;98735.23;3803275;78;44510;-25
2021/06/01 02:51:17;;;;;;;8.25;6.05;;;;;;;8.36;100.00;98734.06;3807362;76;44218;-25
2021/06/01 02:56:24;;;;;;;7.35;6.58;;;;;;;8.28;100.00;98726.73;3805350;77;44502;-25
2021/06/01 03:01:30;;;;;;;7.45;6.30;;;;;;;8.18;100.00;98729.39;3805678;76;43431;-25
2021/06/01 03:06:37;;;;;;;7.65;6.42;;;;;;;8.14;100.00;98726.61;3805266;77;43419;-25
2021/06/01 03:11:45;;;;;;;7.90;6.50;;;;;;;8.10;100.00;98723.00;3806052;76;44082;-25
2021/06/01 03:16:50;;;;;;;9.43;6.47;;;;;;;8.04;100.00;98714.18;3803243;76;43415;-25
2021/06/01 03:21:56;;;;;;;10.38;7.37;;;;;;;7.98;100.00;98714.23;3804402;76;44198;-25
2021/06/01 03:27:03;;;;;;;8.50;6.78;;;;;;;7.89;100.00;98710.53;3807707;76;44042;-26
2021/06/01 03:32:13;;;;;;;8.00;6.78;;;;;;;7.77;100.00;98702.24;3806369;76;44102;-25
2021/06/01 03:37:19;;;;;;;8.48;7.35;;;;;;;7.80;100.00;98693.93;3806289;76;43298;-25
2021/06/01 03:42:25;;;;;;;9.50;7.37;;;;;;;7.78;100.00;98695.89;3727897;78;43324;-25
2021/06/01 03:47:31;;;;;;;9.90;7.47;;;;;;;7.80;100.00;98708.68;3806303;76;43669;-25
2021/06/01 03:52:37;;;;;;;9.63;7.25;;;;;;;7.79;100.00;98709.66;3809267;76;44068;-25
2021/06/01 03:57:44;;;;;;;9.15;6.75;;;;;;;7.80;100.00;98705.49;3804633;76;42910;-25
2021/06/01 04:02:51;;;;;;;9.15;7.50;;;;;;;7.84;100.00;98703.38;3805601;76;44038;-25
2021/06/01 04:08:00;;;;;;;12.00;7.30;;;;;;;7.85;100.00;98698.37;3807348;76;43307;-25
2021/06/01 04:13:06;;;;;;;9.05;6.87;;;;;;;7.90;100.00;98703.32;3806907;76;44058;-25
2021/06/01 04:18:12;;;;;;;8.83;7.28;;;;;;;7.96;100.00;98702.79;3804866;76;43391;-25
2021/06/01 04:23:18;;;;;;;10.37;7.57;;;;;;;8.00;100.00;98703.71;3808368;76;75366;-25
2021/06/01 04:28:24;;;;;;;10.85;7.83;;;;;;;7.99;100.00;98710.06;3801558;76;44097;-25
2021/06/01 04:33:30;;;;;;;9.75;7.87;;;;;;;7.94;100.00;98709.61;3727385;78;43683;-25
2021/06/01 04:38:36;;;;;;;8.55;7.08;;;;;;;7.93;100.00;98711.97;3805698;76;43944;-25
2021/06/01 04:43:42;;;;;;;10.43;7.60;;;;;;;8.02;100.00;98713.82;3809767;76;43937;-25
2021/06/01 04:48:48;;;;;;;8.98;7.30;;;;;;;8.08;100.00;98704.84;3806409;78;43391;-25
2021/06/01 04:53:55;;;;;;;11.28;7.72;;;;;;;8.17;100.00;98707.56;3805446;76;44698;-25
2021/06/01 04:59:01;;;;;;;9.80;8.05;;;;;;;8.24;100.00;98707.85;3808327;76;43453;-25
2021/06/01 05:04:07;;;;;;;12.30;8.20;;;;;;;8.30;100.00;98708.62;3730678;78;43734;-25
2021/06/01 05:09:13;;;;;;;10.10;8.13;;;;;;;8.42;100.00;98709.83;3806827;76;44032;-25
2021/06/01 05:14:19;;;;;;;11.12;7.60;;;;;;;8.51;100.00;98710.38;3805758;76;43521;-25
2021/06/01 05:19:25;;;;;;;9.05;7.25;;;;;;;8.63;100.00;98717.31;3805778;76;44043;-25
2021/06/01 05:24:32;;;;;;;8.70;7.58;;;;;;;8.77;100.00;98721.88;3810010;76;44041;-25
2021/06/01 05:29:41;;;;;;;8.18;7.10;;;;;;;8.91;100.00;98718.76;3726629;78;43886;-25
2021/06/01 05:34:48;;;;;;;10.13;7.47;;;;;;;9.10;100.00;98726.45;3725547;78;44043;-26
2021/06/01 05:39:53;;;;;;;8.95;7.90;;;;;;;9.27;100.00;98725.34;3805224;76;43315;-25
2021/06/01 05:44:59;;;;;;;8.83;7.37;;;;;;;9.41;100.00;98718.99;3806491;77;43442;-25
2021/06/01 05:50:07;;;;;;;9.05;7.40;;;;;;;9.55;100.00;98717.70;3808541;76;43595;-25
2021/06/01 05:55:15;;;;;;;10.98;8.20;;;;;;;9.75;100.00;98724.33;3806577;77;44157;-25
2021/06/01 06:00:23;;;;;;;9.50;7.08;;;;;;;9.93;100.00;98723.55;3803138;77;43898;-25
2021/06/01 06:05:30;;;;;;;10.90;7.78;;;;;;;10.12;100.00;98722.08;3806907;78;43720;-25
2021/06/01 06:10:37;;;;;;;8.78;7.35;;;;;;;10.33;100.00;98720.95;3805295;76;44144;-25
2021/06/01 06:15:43;;;;;;;8.38;7.30;;;;;;;10.57;100.00;98723.57;3807113;77;43414;-26
2021/06/01 06:20:49;;;;;;;11.95;7.90;;;;;;;10.75;100.00;98724.92;3806725;76;43652;-26
2021/06/01 06:25:56;;;;;;;11.18;8.00;;;;;;;10.89;100.00;98720.33;3807883;77;44082;-26
2021/06/01 06:31:02;;;;;;;9.63;7.75;;;;;;;11.13;100.00;98723.36;3826492;76;43330;-26
2021/06/01 06:36:09;;;;;;;13.83;7.45;;;;;;;11.33;100.00;98732.09;3825540;77;43426;-26
2021/06/01 06:41:15;;;;;;;9.20;7.50;;;;;;;11.57;100.00;98724.67;3826182;76;44158;-26
2021/06/01 06:46:26;;;;;;;8.55;7.05;;;;;;;11.77;100.00;98725.77;3823155;77;44011;-26
2021/06/01 06:51:32;;;;;;;12.18;7.75;;;;;;;11.96;100.00;98716.06;3825107;76;43729;-26
2021/06/01 06:56:38;;;;;;;9.05;6.87;;;;;;;12.26;100.00;98715.19;3736771;79;43726;-26
2021/06/01 07:01:44;;;;;;;7.58;6.78;;;;;;;12.47;100.00;98715.22;3739138;78;44157;-26
2021/06/01 07:06:51;;;;;;;8.80;7.70;;;;;;;12.71;100.00;98708.16;3734635;79;44019;-26
2021/06/01 07:11:56;;;;;;;8.45;7.53;;;;;;;12.99;100.00;98710.02;3737326;78;44066;-26
2021/06/01 07:17:03;;;;;;;8.20;7.20;;;;;;;13.14;100.00;98707.45;3737927;79;44040;-26
2021/06/01 07:22:09;;;;;;;9.58;7.45;;;;;;;13.31;100.00;98713.69;3732682;78;44003;-26
2021/06/01 07:27:16;;;;;;;7.72;6.87;;;;;;;13.58;100.00;98702.69;3679341;79;43485;-26
2021/06/01 07:32:21;;;;;;;8.53;7.08;;;;;;;13.83;100.00;98703.44;3805641;76;44057;-26
2021/06/01 07:37:30;;;;;;;9.45;7.22;;;;;;;14.11;100.00;98701.11;3726526;78;43681;-26
2021/06/01 07:42:37;;;;;;;7.20;6.08;;;;;;;14.24;100.00;98702.39;3806779;76;43721;-26
2021/06/01 07:47:44;;;;;;;8.60;5.72;;;;;;;14.46;100.00;98701.58;3808770;76;43460;-26
2021/06/01 07:52:50;;;;;;;5.92;5.20;;;;;;;14.77;95.47;98699.88;3727322;78;44088;-26
2021/06/01 07:57:57;;;;;;;6.60;5.25;;;;;;;15.10;92.43;98708.59;3806450;76;44372;-26
2021/06/01 08:03:03;;;;;;;7.05;4.83;;;;;;;15.30;90.24;98706.70;3805688;77;43658;-26
2021/06/01 08:08:09;;;;;;;5.65;4.40;;;;;;;15.59;87.33;98703.66;3806980;78;43413;-26
2021/06/01 08:13:16;;;;;;;5.35;4.65;;;;;;;15.90;86.74;98701.81;3728710;79;43726;-26
2021/06/01 08:18:24;;;;;;;5.55;4.40;;;;;;;16.07;87.97;98691.08;3805003;78;44059;-26
2021/06/01 08:23:31;;;;;;;5.25;4.20;;;;;;;16.35;83.02;98689.50;3803041;76;43245;-26
2021/06/01 08:28:38;;;;;;;5.70;3.70;;;;;;;16.64;82.53;98683.94;3804687;76;43732;-26
2021/06/01 08:33:44;;;;;;;3.45;2.83;;;;;;;16.77;80.10;98683.75;3723735;79;44061;-26
2021/06/01 08:38:51;;;;;;;3.58;3.02;;;;;;;17.12;65.65;98672.16;3805859;77;44435;-26
2021/06/01 08:44:02;;;;;;;3.30;2.72;;;;;;;17.31;68.47;98669.26;3726097;78;43576;-26
2021/06/01 08:49:08;;;;;;;3.87;2.52;;;;;;;17.48;68.66;98676.59;3805258;77;43698;-27
2021/06/01 08:54:15;;;;;;;2.90;2.27;;;;;;;17.59;64.14;98664.28;3807085;76;43413;-26
2021/06/01 08:59:23;;;;;;;2.47;2.12;;;;;;;17.74;59.46;98669.09;3724249;79;44209;-27
2021/06/01 09:04:48;;;;;;;2.10;1.90;;;;;;;17.98;59.25;98668.28;3805374;76;43364;-27
2021/06/01 09:19:45;;;;;;;2.60;2.35;;;;;;;18.21;55.90;98664.38;3805343;77;44244;-26
2021/06/01 09:21:06;;;;;;;4.83;2.60;;;;;;;18.22;53.41;98653.80;3803600;76;43974;-26
2021/06/01 09:26:13;;;;;;;3.92;2.67;;;;;;;18.44;54.47;98653.95;3724988;79;44462;-26
2021/06/01 09:31:19;;;;;;;3.83;2.90;;;;;;;18.51;52.30;98647.69;3705167;78;43375;-26
2021/06/01 09:36:26;;;;;;;5.80;2.95;;;;;;;18.72;53.55;98639.31;3688989;79;43753;-26
2021/06/01 09:41:34;;;;;;;4.10;3.08;;;;;;;18.96;52.71;98643.86;3807014;76;43821;-26
2021/06/01 09:46:42;;;;;;;3.77;3.02;;;;;;;19.14;56.49;98639.63;3805935;77;43446;-26
2021/06/01 09:51:53;;;;;;;3.27;2.98;;;;;;;19.39;54.84;98624.80;3807357;76;43572;-26
2021/06/01 09:57:00;;;;;;;3.15;2.83;;;;;;;19.40;50.81;98623.20;3801893;77;44121;-26
2021/06/01 10:02:07;;;;;;;4.53;3.05;;;;;;;19.67;52.21;98611.35;3725246;78;44054;-26
2021/06/01 10:07:29;;;;;;;4.92;3.10;;;;;;;19.59;50.85;98606.13;3801872;77;43725;-26
2021/06/01 10:12:36;;;;;;;4.92;3.50;;;;;;;19.54;51.40;98602.14;3807538;76;43979;-26
2021/06/01 10:17:44;;;;;;;3.60;3.08;;;;;;;19.88;51.00;98593.85;3805365;78;43707;-26
2021/06/01 10:22:50;;;;;;;4.10;3.30;;;;;;;20.32;51.77;98589.38;3806938;76;43331;-27
2021/06/01 10:28:00;;;;;;;4.62;3.30;;;;;;;20.58;49.94;98597.09;3806572;77;43314;-27
2021/06/01 10:33:09;;;;;;;4.37;3.50;;;;;;;20.14;50.65;98589.30;3735958;78;44001;-24
2021/06/01 10:50:00;;;;;;;4.50;3.40;;;;;;;20.16;50.68;98583.09;3739538;78;42897;-24
2021/06/01 10:55:10;;;;;;;4.65;3.83;;;;;;;20.22;51.72;98573.16;3732619;78;44097;-24
2021/06/01 11:06:10;;;;;;;4.37;3.70;;;;;;;20.93;50.98;98566.50;3735717;78;43292;-25
2021/06/01 11:11:35;;;;;;;5.85;4.10;;;;;;;21.02;50.54;98563.47;3731609;78;42792;-24
2021/06/01 11:16:55;;;;;;;4.10;3.70;;;;;;;21.06;50.83;98557.85;3725808;78;43878;-24
2021/06/01 11:22:04;;;;;;;4.95;3.90;;;;;;;21.04;52.16;98553.98;3727759;78;44006;-24
2021/06/01 11:38:10;;;;;;;4.72;3.90;;;;;;;20.45;52.33;98555.63;3713108;79;43270;-24
2021/06/01 11:43:16;;;;;;;5.08;3.85;;;;;;;20.51;53.81;98555.27;3717423;78;44157;-24
2021/06/01 11:53:55;;;;;;;5.10;3.83;;;;;;;;;;3739078;78;44109;-23
2021/06/01 12:04:32;;;;;;;6.42;3.87;;;;;;;20.78;51.89;98525.79;3815840;77;43407;-24
2021/06/01 12:20:46;;;;;;;5.40;3.83;;;;;;;21.75;50.10;98506.16;3713303;78;44247;-24
2021/06/01 12:26:06;;;;;;;4.33;3.60;;;;;;;21.48;51.67;98505.11;3818323;76;44154;-24
2021/06/01 12:31:15;;;;;;;5.47;4.17;;;;;;;21.78;50.24;98502.41;3809337;76;44476;-24
2021/06/01 12:42:03;;;;;;;4.90;3.72;;;;;;;21.89;49.26;98495.28;3728639;78;43385;-24
2021/06/01 12:47:23;;;;;;;4.58;4.05;;;;;;;22.40;49.39;98486.14;3806484;76;44539;-24
2021/06/01 13:09:28;;;;;;;8.33;4.05;;;;;;;23.48;47.02;98465.78;3728686;78;44055;-24
2021/06/01 13:14:41;;;;;;;5.00;3.90;;;;;;;23.24;47.67;98466.38;3803857;76;43450;-25
2021/06/01 13:19:47;;;;;;;4.97;4.37;;;;;;;22.89;46.73;98468.63;3801928;76;43684;-24
2021/06/01 13:30:27;;;;;;;5.53;3.90;;;;;;;22.36;47.31;98460.78;3813661;75;43374;-24
2021/06/01 13:46:34;;;;;;;5.17;3.83;;;;;;;22.78;47.87;98445.61;3856488;75;44042;-24
2021/06/01 13:51:55;;;;;;;6.40;4.17;;;;;;;23.47;46.23;98449.52;3788557;77;43353;-25
2021/06/01 13:57:04;;;;;;;6.00;3.98;;;;;;;24.20;45.59;98434.62;3785134;77;43710;-26
2021/06/01 14:29:51;;;;;;;12.33;6.58;;;;;;;25.37;43.72;98421.39;3732540;79;42851;-24
2021/06/01 15:03:49;;;;;;;5.03;4.05;;;;;;;26.92;39.24;98405.30;3825796;76;44377;-24
2021/06/01 15:08:07;;;;;;;6.62;3.33;;;;;;;27.27;39.07;98401.02;3824417;77;43304;-23
2021/06/01 15:30:00;;;;;;;5.47;3.47;;;;;;;27.32;38.07;98368.39;3725243;77;44487;-24
2021/06/01 16:13:14;;;;;;;4.25;3.10;;;;;;;27.92;36.04;98328.64;3807223;76;43715;-24
2021/06/01 16:23:51;;;;;;;5.75;3.37;;;;;;;27.71;35.51;98325.04;3790285;77;43336;-24
2021/06/01 17:06:59;;;;;;;5.53;3.22;;;;;;;26.07;38.04;98290.95;3846568;76;44010;-24
2021/06/01 17:12:04;;;;;;;4.50;3.00;;;;;;;25.90;38.51;98312.38;3836742;77;43326;-25
2021/06/01 17:17:13;;;;;;;3.77;3.30;;;;;;;25.90;38.51;98312.38;3848546;77;43716;-25
2021/06/01 17:22:41;;;;;;;4.62;3.30;;;;;;;25.06;40.36;98311.31;3844449;77;43710;-25
2021/06/01 17:38:41;;;;;;;4.62;3.50;;;;;;;24.92;40.53;98314.47;3835634;76;43292;-23
2021/06/01 17:43:47;;;;;;;3.85;3.45;;;;;;;25.54;39.67;98307.39;3839699;76;43427;-23
2021/06/01 17:48:59;;;;;;;4.45;3.50;;;;;;;25.54;39.67;98307.39;3836060;77;43710;-24
2021/06/01 17:54:06;;;;;;;3.62;3.30;;;;;;;25.69;39.94;98302.58;3837048;77;44094;-24
2021/06/01 17:59:13;;;;;;;3.90;3.50;;;;;;;25.73;40.09;98291.83;3837747;77;43682;-24
2021/06/01 18:04:22;;;;;;;3.50;3.17;;;;;;;25.73;40.09;98291.83;3835299;77;44176;-24
2021/06/01 18:09:52;;;;;;;4.30;3.50;;;;;;;25.74;40.75;98291.56;3825796;76;43325;-23
2021/06/01 18:37:01;;;;;;;5.80;3.90;;;;;;;25.01;41.97;98290.58;3782666;77;43205;-24
2021/06/01 18:42:40;;;;;;;4.72;3.22;;;;;;;24.49;42.96;98292.71;3761494;77;43282;-24
2021/06/01 19:42:57;;;;;;;6.28;4.33;;;;;;;20.61;50.86;98313.88;3765472;77;43327;-25
2021/06/01 19:53:12;;;;;;;5.80;4.42;;;;;;;19.98;54.83;98318.03;3763891;77;43281;-25
2021/06/01 19:58:19;;;;;;;5.22;4.37;;;;;;;19.73;56.11;98318.55;3765641;77;44025;-25
2021/06/01 20:03:25;;;;;;;6.20;4.42;;;;;;;19.63;56.28;98318.52;3766851;77;43678;-23
2021/06/01 20:08:31;;;;;;;5.90;4.65;;;;;;;19.56;57.01;98310.38;3766331;77;43714;-23
2021/06/01 20:13:37;;;;;;;5.00;4.50;;;;;;;19.16;62.63;98316.14;3762133;77;44130;-24
2021/06/01 20:18:44;;;;;;;6.45;4.55;;;;;;;18.93;64.28;98322.11;3772202;77;43702;-23
2021/06/01 20:23:52;;;;;;;5.00;4.20;;;;;;;18.87;65.10;98321.63;3760210;77;42780;-24
2021/06/01 20:29:04;;;;;;;5.55;4.33;;;;;;;18.71;65.19;98322.43;3777488;77;43686;-23
2021/06/01 20:34:11;;;;;;;5.33;3.77;;;;;;;18.57;66.32;98319.44;3771510;77;44010;-23
2021/06/01 20:39:17;;;;;;;6.03;4.40;;;;;;;18.46;66.48;98320.42;3838410;77;43474;-23
2021/06/01 20:44:23;;;;;;;5.45;4.20;;;;;;;18.30;66.60;98317.64;3832893;77;44094;-23
2021/06/01 20:49:29;;;;;;;5.35;4.15;;;;;;;18.07;68.03;98322.19;3843335;77;44094;-23
2021/06/01 20:54:35;;;;;;;5.28;4.25;;;;;;;17.88;69.72;98323.86;3835883;77;44087;-23
2021/06/01 20:59:41;;;;;;;6.50;3.90;;;;;;;17.79;69.40;98321.04;3845777;77;43345;-23
2021/06/01 21:04:48;;;;;;;5.58;3.90;;;;;;;17.76;68.74;98323.67;3832438;77;44568;-24
2021/06/01 21:09:54;;;;;;;6.08;4.40;;;;;;;17.77;68.22;98314.95;3835502;77;43713;-23
2021/06/01 21:15:01;;;;;;;6.83;3.98;;;;;;;17.75;67.72;98322.53;3831332;77;43614;-24
2021/06/01 21:20:11;;;;;;;5.92;4.20;;;;;;;17.72;67.17;98318.31;3828103;77;44463;-24
2021/06/01 21:25:20;;;;;;;5.17;4.05;;;;;;;17.61;68.62;98318.95;3844917;77;43349;-24
2021/06/01 21:30:29;;;;;;;5.75;4.47;;;;;;;17.39;69.88;98325.95;3832586;77;43374;-24
2021/06/01 21:35:37;;;;;;;3.98;3.20;;;;;;;17.40;70.33;98327.10;3833686;77;42763;-21
2021/06/01 21:40:46;;;;;;;4.72;3.92;;;;;;;17.27;71.16;98320.81;3834079;77;44153;-22
2021/06/01 21:45:53;;;;;;;6.58;4.25;;;;;;;17.20;73.50;98321.66;3834125;77;43425;-21
2021/06/01 21:51:00;;;;;;;5.87;4.80;;;;;;;16.90;76.78;98317.05;3837740;77;42782;-21
2021/06/01 21:56:08;;;;;;;5.53;4.30;;;;;;;16.52;82.69;98321.61;3838404;77;44194;-21
2021/06/01 22:01:14;;;;;;;5.92;4.78;;;;;;;16.33;83.91;98318.06;3834156;77;44025;-21
2021/06/01 22:06:20;;;;;;;5.35;4.80;;;;;;;16.27;83.89;98322.96;3835332;76;44575;-22
2021/06/01 22:11:27;;;;;;;6.30;4.75;;;;;;;16.27;82.57;98324.83;3838059;77;44031;-21
2021/06/01 22:16:33;;;;;;;7.65;4.80;;;;;;;16.01;85.11;98320.90;3840947;77;43672;-21
2021/06/01 22:21:40;;;;;;;9.48;5.28;;;;;;;15.90;86.13;98319.59;3837053;77;44460;-21
2021/06/01 22:26:47;;;;;;;6.90;5.28;;;;;;;15.80;86.36;98319.07;3837642;77;43403;-21
2021/06/01 22:31:53;;;;;;;6.58;5.22;;;;;;;15.82;85.84;98315.61;3839526;77;44851;-20
2021/06/01 22:37:00;;;;;;;6.10;5.50;;;;;;;15.83;84.83;98315.44;3842852;77;43382;-21
2021/06/01 22:42:08;;;;;;;6.65;5.10;;;;;;;15.85;83.76;98319.33;3836688;77;43756;-21
2021/06/01 22:47:15;;;;;;;7.08;5.60;;;;;;;15.89;82.39;98314.33;3845927;77;44027;-21
2021/06/01 22:52:21;;;;;;;9.85;5.78;;;;;;;15.58;86.52;98325.05;3841131;77;43697;-22
2021/06/01 22:57:27;;;;;;;6.60;5.55;;;;;;;15.67;84.13;98315.22;3842462;77;44145;-21
2021/06/01 23:02:35;;;;;;;7.97;4.85;;;;;;;15.76;82.84;98310.45;3839791;77;44059;-22
2021/06/01 23:07:43;;;;;;;8.05;5.40;;;;;;;15.81;81.87;98318.03;3824614;77;43410;-22
2021/06/01 23:12:52;;;;;;;8.23;5.53;;;;;;;15.69;83.54;98305.50;3835679;77;43093;-21
2021/06/01 23:17:59;;;;;;;7.00;4.70;;;;;;;15.30;86.31;98302.77;3846533;77;43689;-22
2021/06/01 23:23:06;;;;;;;5.87;4.90;;;;;;;15.15;86.73;98306.91;3837939;77;43722;-22
2021/06/01 23:28:13;;;;;;;6.28;5.10;;;;;;;15.14;86.76;98299.30;3829618;77;44038;-21
2021/06/01 23:33:19;;;;;;;6.92;5.40;;;;;;;15.04;87.41;98304.21;3833377;77;44173;-21
2021/06/01 23:38:31;;;;;;;6.75;5.45;;;;;;;14.91;88.56;98304.89;3782982;77;42860;-21
2021/06/01 23:43:37;;;;;;;6.45;5.08;;;;;;;14.84;90.02;98308.06;3777296;77;43514;-21
2021/06/01 23:54:10;;;;;;;6.80;5.22;;;;;;;14.73;90.83;98302.11;3763073;77;44427;-22
2021/06/01 23:59:17;;;;;;;6.72;5.42;;;;;;;14.74;90.78;98296.16;3773593;77;43325;-23
